Time;durP1;ratioP1;P1;durP2;ratioP2;P2;SDS_P1;SDS_P2;PMS_P1;PMS_P2;Temp;Humidity;BMP_temperature;BMP_pressure;BME280_temperature;BME280_humidity;BME280_pressure;Samples;Min_cycle;Max_cycle;Signal;HPM_P1;HPM_P2
2023/05/10 00:01:56;;;;;;;13.98;5.65;;;;;;;11.08;100.00;92140.81;5035916;28;20044;-75
2023/05/10 00:04:22;;;;;;;9.82;4.93;;;;;;;11.07;100.00;92144.53;5053628;28;20136;-76
2023/05/10 00:06:47;;;;;;;8.35;4.57;;;;;;;11.08;100.00;92146.06;5053742;28;20041;-75
2023/05/10 00:09:13;;;;;;;13.98;4.10;;;;;;;11.05;100.00;92144.81;5053659;28;20029;-75
2023/05/10 00:11:39;;;;;;;10.52;4.10;;;;;;;11.07;100.00;92149.75;5053490;28;20494;-75
2023/05/10 00:14:04;;;;;;;7.93;3.70;;;;;;;11.11;100.00;92145.47;5035769;28;20032;-75
2023/05/10 00:16:30;;;;;;;5.47;3.15;;;;;;;11.07;100.00;92139.28;5053412;28;20331;-75
2023/05/10 00:18:55;;;;;;;55.47;3.53;;;;;;;11.08;100.00;92136.38;5053506;28;20478;-75
2023/05/10 00:21:21;;;;;;;16.77;3.50;;;;;;;11.03;100.00;92139.09;5053506;28;20521;-75
2023/05/10 00:23:47;;;;;;;8.45;3.22;;;;;;;11.02;100.00;92134.94;5053107;28;20060;-76
2023/05/10 00:26:12;;;;;;;4.13;2.20;;;;;;;10.97;100.00;92133.22;5052169;28;20530;-76
2023/05/10 00:28:40;;;;;;;6.70;2.55;;;;;;;10.97;100.00;92130.59;5035437;28;20064;-75
2023/05/10 00:31:06;;;;;;;3.15;1.80;;;;;;;10.95;100.00;92124.88;5035319;28;20566;-75
2023/05/10 00:33:31;;;;;;;4.72;1.75;;;;;;;10.93;100.00;92127.00;5035374;28;20029;-75
2023/05/10 00:35:57;;;;;;;3.00;1.60;;;;;;;10.92;100.00;92112.38;5053137;28;20505;-75
2023/05/10 00:43:57;;;;;;;20.70;1.80;;;;;;;10.95;100.00;92117.00;4970701;23;20540;-78
2023/05/10 00:46:23;;;;;;;115.93;3.47;;;;;;;10.92;100.00;92111.59;4978666;28;20039;-78
2023/05/10 00:48:52;;;;;;;45.63;3.05;;;;;;;10.71;100.00;92087.72;5007228;23;20071;-92
2023/05/10 00:51:28;;;;;;;;;;;;;;;10.89;100.00;92120.81;4940044;28;20045;-94
2023/05/10 00:53:55;;;;;;;560.00;11.55;;;;;;;10.84;100.00;92121.69;4992087;23;20431;-75
2023/05/10 00:56:22;;;;;;;1269.45;30.27;;;;;;;10.71;100.00;92119.91;4916580;29;20036;-75
2023/05/10 00:58:49;;;;;;;1455.50;32.35;;;;;;;10.55;100.00;92118.69;4914781;29;20127;-76
2023/05/10 01:01:14;;;;;;;1003.63;20.85;;;;;;;10.44;100.00;92123.34;4914370;29;20552;-76
2023/05/10 01:03:40;;;;;;;1045.10;25.40;;;;;;;10.37;100.00;92112.50;4915495;29;20064;-76
2023/05/10 01:06:06;;;;;;;383.25;10.75;;;;;;;10.34;100.00;92115.72;4915886;29;20115;-76
2023/05/10 01:08:32;;;;;;;237.50;8.27;;;;;;;10.36;100.00;92116.19;4914769;29;20032;-76
2023/05/10 01:10:58;;;;;;;788.58;17.45;;;;;;;10.31;100.00;92118.91;4915870;29;20118;-76
2023/05/10 01:13:47;;;;;;;854.78;21.23;;;;;;;10.32;100.00;92117.84;4915665;29;20035;-76
2023/05/10 01:16:14;;;;;;;1811.38;38.03;;;;;;;10.19;100.00;92116.75;4926482;29;20446;-76
2023/05/10 01:18:41;;;;;;;1241.10;31.73;;;;;;;10.10;100.00;92116.66;4915448;29;20062;-76
2023/05/10 01:21:31;;;;;;;1377.05;31.10;;;;;;;10.06;100.00;92113.06;4930324;29;20091;-76
2023/05/10 01:24:10;;;;;;;1484.85;31.48;;;;;;;10.04;100.00;92117.81;4909403;29;20073;-76
2023/05/10 01:27:02;;;;;;;944.72;20.70;;;;;;;9.90;100.00;92111.81;4910139;29;20035;-76
2023/05/10 01:29:54;;;;;;;941.95;19.50;;;;;;;9.91;100.00;92113.41;4914197;29;20457;-76
2023/05/10 01:32:32;;;;;;;596.42;12.68;;;;;;;9.84;100.00;92110.38;4915768;29;20035;-76
2023/05/10 01:35:19;;;;;;;5.97;3.58;;;;;;;9.86;100.00;92113.47;4913828;29;20036;-75
2023/05/10 01:37:57;;;;;;;17.83;3.63;;;;;;;9.90;100.00;92111.81;4915040;29;20055;-76
2023/05/10 01:40:48;;;;;;;5.68;3.20;;;;;;;9.93;100.00;92106.81;4915517;29;20521;-76
2023/05/10 01:43:25;;;;;;;4.30;2.03;;;;;;;9.96;100.00;92108.06;4909720;29;20044;-76
2023/05/10 01:46:10;;;;;;;5.03;1.92;;;;;;;9.97;100.00;92106.97;4927321;29;20612;-75
2023/05/10 01:48:47;;;;;;;3.53;1.90;;;;;;;9.94;100.00;92110.94;4915135;29;20502;-76
2023/05/10 01:51:16;;;;;;;4.57;2.10;;;;;;;9.96;100.00;92108.81;4915044;29;20040;-76
2023/05/10 01:53:44;;;;;;;11.18;2.53;;;;;;;9.99;100.00;92107.47;4923776;29;20040;-75
2023/05/10 01:56:12;;;;;;;5.20;1.92;;;;;;;10.00;100.00;92106.41;4929724;29;20042;-75
2023/05/10 01:58:40;;;;;;;9.30;2.30;;;;;;;10.04;100.00;92101.38;4932111;29;20028;-76
2023/05/10 02:01:08;;;;;;;5.10;2.20;;;;;;;10.06;100.00;92107.84;4916722;29;20048;-75
2023/05/10 02:03:36;;;;;;;3.72;1.80;;;;;;;10.07;100.00;92109.41;4916649;29;20035;-76
2023/05/10 02:06:04;;;;;;;4.97;1.75;;;;;;;10.04;100.00;92103.97;4916805;29;20071;-76
2023/05/10 02:08:31;;;;;;;3.28;1.92;;;;;;;10.00;100.00;92106.41;4916551;29;20046;-76
2023/05/10 02:10:58;;;;;;;3.97;2.25;;;;;;;10.02;100.00;92101.66;4934145;29;20389;-76
2023/05/10 02:13:27;;;;;;;4.03;2.00;;;;;;;10.10;100.00;92108.81;4915842;29;20068;-76
2023/05/10 02:15:54;;;;;;;7.13;2.15;;;;;;;9.98;100.00;92101.47;4933772;29;20028;-76
2023/05/10 02:18:22;;;;;;;4.18;2.00;;;;;;;9.95;100.00;92109.09;4916457;29;20031;-76
2023/05/10 02:20:48;;;;;;;4.43;1.90;;;;;;;9.93;100.00;92113.84;4933595;29;20031;-76
2023/05/10 02:23:17;;;;;;;3.15;1.60;;;;;;;9.91;100.00;92113.41;4933348;29;20082;-76
2023/05/10 02:25:45;;;;;;;3.58;1.80;;;;;;;9.89;100.00;92107.69;4916928;29;20035;-76
2023/05/10 02:28:12;;;;;;;2.88;1.48;;;;;;;9.89;100.00;92110.28;4915848;29;20027;-76
2023/05/10 02:30:39;;;;;;;2.58;1.45;;;;;;;9.88;100.00;92112.09;4933387;29;20036;-76
2023/05/10 02:33:05;;;;;;;4.10;1.42;;;;;;;9.89;100.00;92108.44;4933681;29;20397;-77
2023/05/10 02:35:33;;;;;;;2.30;1.30;;;;;;;9.96;100.00;92114.06;4900823;29;20036;-76
2023/05/10 02:37:59;;;;;;;2.67;1.40;;;;;;;9.94;100.00;92110.94;4916778;29;20539;-76
2023/05/10 02:40:27;;;;;;;2.40;1.40;;;;;;;9.92;100.00;92109.69;4933333;29;20508;-76
2023/05/10 02:42:56;;;;;;;3.13;1.40;;;;;;;9.97;100.00;92109.59;4930043;29;20144;-76
2023/05/10 02:45:26;;;;;;;3.65;1.42;;;;;;;9.99;100.00;92107.47;4914419;29;20136;-76
2023/05/10 02:47:52;;;;;;;7.05;1.58;;;;;;;10.00;100.00;92112.41;4933976;29;20036;-76
2023/05/10 02:50:21;;;;;;;5.00;1.35;;;;;;;9.99;100.00;92118.69;4932723;29;20032;-76
2023/05/10 02:52:51;;;;;;;255.90;7.57;;;;;;;10.00;100.00;92107.19;4933375;29;20405;-76
2023/05/10 02:55:21;;;;;;;789.80;17.38;;;;;;;9.75;100.00;92108.44;4915995;29;20488;-76
2023/05/10 02:57:52;;;;;;;370.65;8.70;;;;;;;9.78;100.00;92100.00;4915883;29;20024;-76
2023/05/10 03:00:18;;;;;;;606.38;14.25;;;;;;;9.66;100.00;92099.72;4932901;29;20401;-76
2023/05/10 03:02:43;;;;;;;622.47;12.45;;;;;;;9.57;100.00;92096.22;4916046;29;20042;-76
2023/05/10 03:05:09;;;;;;;21.92;2.72;;;;;;;9.56;100.00;92094.66;4916408;29;20126;-76
2023/05/10 03:07:35;;;;;;;4.72;2.20;;;;;;;9.54;100.00;92089.72;4916125;29;20059;-76
2023/05/10 03:10:02;;;;;;;33.40;3.20;;;;;;;9.55;100.00;92093.13;4900647;29;20493;-76
2023/05/10 03:13:05;;;;;;;8.25;2.50;;;;;;;9.58;100.00;92097.78;4931558;29;20024;-76
2023/05/10 03:15:44;;;;;;;13.13;2.67;;;;;;;9.61;100.00;92099.78;4916128;29;20406;-76
2023/05/10 03:18:15;;;;;;;3.45;1.80;;;;;;;9.65;100.00;92097.38;4916014;29;20043;-76
2023/05/10 03:20:48;;;;;;;3.00;1.58;;;;;;;9.79;100.00;92092.94;4916226;29;20039;-76
2023/05/10 03:23:33;;;;;;;2.83;1.63;;;;;;;9.69;100.00;92096.53;4916996;29;20044;-76
2023/05/10 03:26:01;;;;;;;2.13;1.48;;;;;;;9.65;100.00;92092.16;4937247;29;20067;-76
2023/05/10 03:28:27;;;;;;;2.25;1.20;;;;;;;9.66;100.00;92094.50;4920409;29;20042;-76
2023/05/10 03:30:56;;;;;;;2.30;1.40;;;;;;;9.64;100.00;92088.03;4936894;29;20449;-76
2023/05/10 03:33:23;;;;;;;2.65;1.33;;;;;;;9.64;100.00;92086.16;4936676;29;20449;-75
2023/05/10 03:35:49;;;;;;;2.03;1.40;;;;;;;9.67;100.00;92090.81;4919758;29;20246;-75
2023/05/10 03:38:15;;;;;;;2.80;1.27;;;;;;;9.70;100.00;92089.44;4937041;29;20390;-76
2023/05/10 03:40:40;;;;;;;2.65;1.38;;;;;;;9.70;100.00;92090.22;4919588;29;20043;-75
2023/05/10 03:43:07;;;;;;;4.40;1.30;;;;;;;9.73;100.00;92088.91;4919074;29;20485;-76
2023/05/10 03:45:32;;;;;;;2.03;1.30;;;;;;;9.69;100.00;92085.31;4935746;29;20047;-76
2023/05/10 03:47:58;;;;;;;3.03;1.52;;;;;;;9.69;100.00;92080.84;4919511;29;20065;-76
2023/05/10 03:50:24;;;;;;;2.58;1.58;;;;;;;9.72;100.00;92088.09;4919060;29;20039;-76
2023/05/10 03:52:50;;;;;;;5.38;1.58;;;;;;;9.74;100.00;92085.97;4916968;29;20055;-76
2023/05/10 03:55:16;;;;;;;2.92;1.80;;;;;;;9.75;100.00;92087.53;4919601;29;20062;-76
2023/05/10 03:57:42;;;;;;;4.57;1.80;;;;;;;9.75;100.00;92089.38;4919098;29;20031;-76
2023/05/10 04:00:08;;;;;;;2.70;1.65;;;;;;;9.73;100.00;92086.28;4918894;29;20573;-76
2023/05/10 04:02:40;;;;;;;2.53;1.60;;;;;;;9.69;100.00;92093.91;4932053;29;20036;-75
2023/05/10 04:05:07;;;;;;;2.75;1.60;;;;;;;9.69;100.00;92098.38;4935096;29;20540;-75
2023/05/10 04:07:33;;;;;;;2.78;1.50;;;;;;;9.69;100.00;92095.75;4930197;29;20024;-75
2023/05/10 04:09:59;;;;;;;2.75;1.50;;;;;;;9.68;100.00;92081.91;4919141;29;20150;-75
2023/05/10 04:12:24;;;;;;;1.63;1.20;;;;;;;9.67;100.00;92090.81;4902705;29;20035;-76
2023/05/10 04:14:50;;;;;;;2.25;1.35;;;;;;;9.67;100.00;92082.97;4935822;29;20040;-76
2023/05/10 04:17:16;;;;;;;2.63;1.38;;;;;;;9.77;100.00;92087.22;4936066;29;20032;-76
2023/05/10 04:19:42;;;;;;;4.72;1.80;;;;;;;9.67;100.00;92093.41;4923835;29;20080;-75
2023/05/10 04:22:07;;;;;;;3.85;1.42;;;;;;;9.68;100.00;92083.72;4899483;29;20131;-76
2023/05/10 04:24:33;;;;;;;2.08;1.35;;;;;;;9.62;100.00;92085.69;4915838;29;20047;-76
2023/05/10 04:26:58;;;;;;;2.55;1.50;;;;;;;9.59;100.00;92084.44;4935566;29;20051;-75
2023/05/10 04:29:24;;;;;;;1.75;1.25;;;;;;;9.56;100.00;92079.00;4936022;29;20405;-75
2023/05/10 04:31:50;;;;;;;2.25;1.30;;;;;;;9.54;100.00;92087.09;4935667;29;20359;-76
2023/05/10 04:34:16;;;;;;;8.55;1.88;;;;;;;9.53;100.00;92088.19;4935598;29;20114;-76
2023/05/10 04:36:41;;;;;;;395.27;8.85;;;;;;;9.52;100.00;92086.63;4934768;29;20548;-76
2023/05/10 04:39:08;;;;;;;316.80;6.97;;;;;;;9.52;100.00;92089.22;4918593;29;20060;-76
2023/05/10 04:41:33;;;;;;;309.10;6.75;;;;;;;9.46;100.00;92090.41;4918339;29;20040;-77
2023/05/10 04:43:59;;;;;;;214.25;6.35;;;;;;;9.40;100.00;92090.78;4918320;29;20032;-76
2023/05/10 04:46:24;;;;;;;328.30;6.93;;;;;;;9.43;100.00;92090.19;4935476;29;20577;-76
2023/05/10 04:48:50;;;;;;;309.88;6.57;;;;;;;9.50;100.00;92095.81;4918279;29;20493;-76
2023/05/10 04:51:16;;;;;;;219.30;6.13;;;;;;;9.50;100.00;92090.59;4934796;29;20039;-76
2023/05/10 04:53:41;;;;;;;158.80;4.68;;;;;;;9.57;100.00;92085.78;4916167;29;20119;-76
2023/05/10 04:56:07;;;;;;;135.07;3.88;;;;;;;9.58;100.00;92082.09;4907757;29;20032;-76
2023/05/10 04:58:33;;;;;;;357.52;7.35;;;;;;;9.65;100.00;92077.25;4927489;29;20040;-76
2023/05/10 05:01:06;;;;;;;466.48;9.30;;;;;;;9.47;100.00;92070.28;4933003;29;20040;-76
2023/05/10 05:03:32;;;;;;;492.67;9.82;;;;;;;9.36;100.00;92070.44;4934482;29;20039;-80
2023/05/10 05:05:57;;;;;;;133.18;3.70;;;;;;;9.35;100.00;92073.38;4920006;29;20050;-78
2023/05/10 05:08:23;;;;;;;149.40;3.95;;;;;;;9.28;100.00;92058.06;4921621;29;20494;-78
2023/05/10 05:10:50;;;;;;;34.53;3.30;;;;;;;9.33;100.00;92068.41;4939027;29;20043;-78
2023/05/10 05:13:15;;;;;;;184.27;5.05;;;;;;;9.43;100.00;92061.47;4917067;29;20035;-79
2023/05/10 05:15:41;;;;;;;130.32;4.22;;;;;;;9.43;100.00;92064.84;4933161;29;20289;-77
2023/05/10 05:18:08;;;;;;;83.78;3.58;;;;;;;9.43;100.00;92069.28;4934731;29;20048;-78
2023/05/10 05:20:36;;;;;;;339.08;7.72;;;;;;;9.50;100.00;92074.91;4935673;29;20035;-78
2023/05/10 05:23:02;;;;;;;4.40;2.20;;;;;;;9.43;100.00;92075.28;4938617;29;20054;-78
2023/05/10 05:25:27;;;;;;;4.00;2.10;;;;;;;9.43;100.00;92071.91;4918735;29;20035;-79
2023/05/10 05:27:53;;;;;;;4.55;2.40;;;;;;;9.44;100.00;92073.47;4920455;29;20067;-79
2023/05/10 05:30:19;;;;;;;90.43;3.70;;;;;;;9.41;100.00;92066.19;4938302;29;20031;-79
2023/05/10 05:32:44;;;;;;;506.08;11.85;;;;;;;9.45;100.00;92080.25;4935194;29;20040;-79
2023/05/10 05:35:10;;;;;;;86.35;3.47;;;;;;;9.44;100.00;92081.31;4917082;29;20043;-80
2023/05/10 05:37:37;;;;;;;479.30;10.80;;;;;;;9.41;100.00;92087.09;4935152;29;20063;-79
2023/05/10 05:40:03;;;;;;;1014.13;22.83;;;;;;;9.48;100.00;92090.09;4937799;29;20485;-79
2023/05/10 05:42:28;;;;;;;465.33;10.63;;;;;;;9.43;100.00;92085.75;4921613;29;20047;-79
2023/05/10 05:44:54;;;;;;;760.17;17.98;;;;;;;9.40;100.00;92083.72;4935523;29;20040;-80
2023/05/10 05:47:19;;;;;;;149.32;5.82;;;;;;;9.42;100.00;92086.06;4922491;29;20054;-80
2023/05/10 05:49:45;;;;;;;458.35;11.48;;;;;;;9.45;100.00;92086.22;4931567;29;20068;-79
2023/05/10 05:52:11;;;;;;;798.55;19.52;;;;;;;9.41;100.00;92092.31;4935797;29;20046;-79
2023/05/10 05:54:37;;;;;;;552.15;14.00;;;;;;;9.31;100.00;92088.81;4937498;29;20050;-79
2023/05/10 05:57:02;;;;;;;515.03;13.32;;;;;;;9.28;100.00;92088.63;4936012;29;20057;-79
2023/05/10 05:59:28;;;;;;;313.95;8.63;;;;;;;9.22;100.00;92095.00;4917642;29;20106;-79
2023/05/10 06:01:54;;;;;;;117.22;5.05;;;;;;;9.23;100.00;92092.13;4902957;29;20036;-78
2023/05/10 06:04:20;;;;;;;99.53;4.55;;;;;;;9.21;100.00;92093.44;4906067;29;20057;-78
2023/05/10 06:06:46;;;;;;;56.40;4.60;;;;;;;9.21;100.00;92096.84;4918482;29;20028;-78
2023/05/10 06:09:11;;;;;;;7.35;3.10;;;;;;;9.18;100.00;92100.78;4917881;29;20438;-79
2023/05/10 06:11:37;;;;;;;6.10;2.65;;;;;;;9.21;100.00;92099.47;4935523;29;20047;-78
2023/05/10 06:14:04;;;;;;;5.38;3.15;;;;;;;9.26;100.00;92106.44;4929199;29;20429;-78
2023/05/10 06:16:33;;;;;;;11.02;2.97;;;;;;;9.26;100.00;92107.19;4911115;29;20458;-78
2023/05/10 06:18:59;;;;;;;5.10;3.22;;;;;;;9.29;100.00;92111.06;4907973;29;20047;-78
2023/05/10 06:21:25;;;;;;;145.55;6.80;;;;;;;9.35;100.00;92115.16;4928056;29;20609;-78
2023/05/10 06:23:51;;;;;;;44.40;4.50;;;;;;;9.24;100.00;92113.78;4926015;29;20516;-80
2023/05/10 06:26:16;;;;;;;11.15;3.83;;;;;;;9.21;100.00;92125.56;4913151;29;20462;-80
2023/05/10 06:28:42;;;;;;;9.48;3.53;;;;;;;9.19;100.00;92127.69;4914468;29;20044;-79
2023/05/10 06:31:07;;;;;;;5.03;3.30;;;;;;;9.16;100.00;92123.81;4908020;29;20047;-78
2023/05/10 06:33:33;;;;;;;5.10;2.78;;;;;;;9.23;100.00;92133.91;4909315;29;20134;-78
2023/05/10 06:35:59;;;;;;;5.90;3.13;;;;;;;9.17;100.00;92130.56;4911340;29;20067;-80
2023/05/10 06:38:25;;;;;;;7.28;3.10;;;;;;;9.20;100.00;92137.06;4931115;29;20032;-79
2023/05/10 06:40:50;;;;;;;8.98;3.40;;;;;;;9.14;100.00;92130.34;4926057;29;20808;-80
2023/05/10 06:43:16;;;;;;;7.40;3.65;;;;;;;9.19;100.00;92132.91;4926115;29;20051;-78
2023/05/10 06:45:42;;;;;;;6.32;3.63;;;;;;;9.17;100.00;92135.03;4925284;29;20040;-77
2023/05/10 06:48:08;;;;;;;5.53;3.65;;;;;;;9.18;100.00;92136.56;4932254;29;20126;-77
2023/05/10 06:50:33;;;;;;;5.90;4.03;;;;;;;9.21;100.00;92135.22;4926610;29;20155;-78
2023/05/10 06:53:00;;;;;;;6.47;3.83;;;;;;;9.25;100.00;92131.75;4924889;29;20107;-78
2023/05/10 06:55:26;;;;;;;46.53;4.18;;;;;;;9.30;100.00;92138.72;4926938;29;20040;-77
2023/05/10 06:57:53;;;;;;;5.88;3.53;;;;;;;9.26;100.00;92133.31;4924550;29;20700;-77
2023/05/10 07:00:19;;;;;;;7.57;3.78;;;;;;;9.30;100.00;92131.69;4926686;29;20036;-77
2023/05/10 07:02:45;;;;;;;5.40;3.38;;;;;;;9.31;100.00;92130.63;4927714;29;20508;-78
2023/05/10 07:05:11;;;;;;;6.05;3.75;;;;;;;9.34;100.00;92134.50;4917151;29;20372;-78
2023/05/10 07:07:37;;;;;;;165.98;7.07;;;;;;;9.32;100.00;92139.22;4903641;29;20086;-78
2023/05/10 07:10:03;;;;;;;6.50;3.30;;;;;;;9.34;100.00;92137.09;4936278;29;20048;-78
2023/05/10 07:12:28;;;;;;;7.10;3.72;;;;;;;9.35;100.00;92131.59;4936055;29;20035;-78
2023/05/10 07:14:54;;;;;;;12.93;3.58;;;;;;;9.37;100.00;92136.53;4918500;29;20042;-78
2023/05/10 07:17:20;;;;;;;5.00;3.25;;;;;;;9.40;100.00;92137.81;4936212;29;20039;-78
2023/05/10 07:19:45;;;;;;;5.80;3.13;;;;;;;9.42;100.00;92135.69;4936172;29;20047;-77
2023/05/10 07:22:11;;;;;;;4.32;2.70;;;;;;;9.46;100.00;92126.22;4933728;29;20444;-78
2023/05/10 07:24:37;;;;;;;4.70;2.97;;;;;;;9.44;100.00;92133.56;4930425;29;20075;-78
2023/05/10 07:27:02;;;;;;;6.97;3.20;;;;;;;9.43;100.00;92135.38;4933297;29;20035;-78
2023/05/10 07:29:28;;;;;;;5.47;3.08;;;;;;;9.48;100.00;92129.28;4935357;29;20066;-77
2023/05/10 07:31:54;;;;;;;5.00;3.08;;;;;;;9.51;100.00;92123.50;4918042;29;20111;-78
2023/05/10 07:34:20;;;;;;;5.00;3.28;;;;;;;9.51;100.00;92131.34;4918733;29;20047;-77
2023/05/10 07:36:45;;;;;;;5.13;3.50;;;;;;;9.51;100.00;92133.97;4935438;29;20139;-78
2023/05/10 07:39:11;;;;;;;6.95;3.33;;;;;;;9.55;100.00;92133.09;4935252;29;20395;-78
2023/05/10 07:41:37;;;;;;;5.25;3.55;;;;;;;9.55;100.00;92140.94;4935678;29;20032;-78
2023/05/10 07:44:03;;;;;;;38.65;4.45;;;;;;;9.67;100.00;92143.09;4917952;29;20032;-78
2023/05/10 07:46:29;;;;;;;65.60;5.40;;;;;;;9.58;100.00;92139.59;4934963;29;20042;-77
2023/05/10 07:48:55;;;;;;;6.70;4.07;;;;;;;9.58;100.00;92135.13;4935338;29;20418;-78
2023/05/10 07:51:20;;;;;;;6.00;4.10;;;;;;;9.64;100.00;92133.22;4918469;29;20035;-78
2023/05/10 07:53:46;;;;;;;5.85;4.03;;;;;;;9.79;100.00;92137.38;4936137;29;20044;-78
2023/05/10 07:56:29;;;;;;;6.45;3.85;;;;;;;9.79;100.00;92138.16;4909977;29;20059;-78
2023/05/10 07:58:56;;;;;;;6.32;3.88;;;;;;;9.79;100.00;92135.56;4918070;29;20435;-78
2023/05/10 08:01:22;;;;;;;60.28;4.60;;;;;;;9.78;100.00;92133.22;4935567;29;20031;-78
2023/05/10 08:03:48;;;;;;;11.85;4.47;;;;;;;9.78;100.00;92133.22;4918478;29;20141;-78
2023/05/10 08:06:15;;;;;;;9.10;4.22;;;;;;;9.73;100.00;92131.47;4934728;29;20571;-78
2023/05/10 08:08:41;;;;;;;6.57;4.30;;;;;;;9.76;100.00;92133.50;4917813;29;20062;-79
2023/05/10 08:11:07;;;;;;;6.78;4.15;;;;;;;9.86;100.00;92134.38;4936406;29;20032;-78
2023/05/10 08:13:32;;;;;;;7.28;4.30;;;;;;;9.98;100.00;92139.91;4938457;29;20067;-78
2023/05/10 08:15:58;;;;;;;10.55;3.80;;;;;;;9.97;100.00;92130.50;4937126;29;20078;-78
2023/05/10 08:18:23;;;;;;;6.18;3.88;;;;;;;10.02;100.00;92138.28;4937946;29;20378;-78
2023/05/10 08:20:49;;;;;;;6.53;3.67;;;;;;;10.07;100.00;92134.78;4920255;29;20043;-78
2023/05/10 08:23:15;;;;;;;5.80;3.80;;;;;;;10.18;100.00;92142.16;4920039;29;20508;-78
2023/05/10 08:25:40;;;;;;;5.78;3.72;;;;;;;10.27;100.00;92142.25;4937143;29;20036;-78
2023/05/10 08:28:06;;;;;;;5.15;3.50;;;;;;;10.19;100.00;92138.47;4905063;29;20047;-78
2023/05/10 08:30:32;;;;;;;5.80;3.30;;;;;;;10.24;100.00;92139.44;4920966;29;20040;-78
2023/05/10 08:32:57;;;;;;;5.53;3.88;;;;;;;10.34;100.00;92139.25;4936285;29;20134;-78
2023/05/10 08:35:24;;;;;;;4.93;3.40;;;;;;;10.40;100.00;92132.84;4920234;29;20036;-78
2023/05/10 08:37:50;;;;;;;5.40;3.55;;;;;;;10.55;100.00;92129.91;4919576;29;20053;-78
2023/05/10 08:40:15;;;;;;;5.32;3.10;;;;;;;10.65;100.00;92128.16;4941335;29;20054;-78
2023/05/10 08:42:49;;;;;;;5.32;3.47;;;;;;;10.71;100.00;92132.97;4920880;29;20525;-79
2023/05/10 08:45:16;;;;;;;5.15;3.20;;;;;;;10.77;100.00;92131.81;4921565;29;20458;-79
2023/05/10 08:47:42;;;;;;;6.68;3.78;;;;;;;10.92;100.00;92135.16;4936847;29;20069;-79
2023/05/10 08:50:08;;;;;;;4.93;3.38;;;;;;;11.03;100.00;92139.88;4938457;29;20122;-78
2023/05/10 08:52:38;;;;;;;5.15;3.53;;;;;;;11.10;100.00;92136.06;4938138;29;20041;-78
2023/05/10 08:55:04;;;;;;;5.22;3.50;;;;;;;11.19;100.00;92131.66;4936468;29;20450;-78
2023/05/10 08:57:30;;;;;;;5.22;3.03;;;;;;;11.27;100.00;92133.56;4916924;29;20050;-77
2023/05/10 08:59:55;;;;;;;5.20;3.30;;;;;;;11.31;100.00;92139.00;4920257;29;20043;-78
2023/05/10 09:02:23;;;;;;;6.30;3.40;;;;;;;11.32;100.00;92138.69;4937481;29;20091;-78
2023/05/10 09:04:48;;;;;;;5.97;3.25;;;;;;;11.37;100.00;92135.97;4937969;29;20043;-78
2023/05/10 09:07:14;;;;;;;6.07;3.42;;;;;;;11.45;100.00;92134.44;4905009;29;20469;-78
2023/05/10 09:09:40;;;;;;;6.82;3.13;;;;;;;11.53;100.00;92140.81;4905497;29;20174;-78
2023/05/10 09:12:07;;;;;;;4.38;3.00;;;;;;;11.51;100.00;92138.50;4921111;29;20035;-77
2023/05/10 09:14:35;;;;;;;5.03;3.20;;;;;;;11.51;100.00;92141.13;4919393;29;20094;-78
2023/05/10 09:17:01;;;;;;;7.00;3.47;;;;;;;11.53;100.00;92143.44;4936721;29;20541;-79
2023/05/10 09:19:28;;;;;;;3.17;1.98;;;;;;;11.49;100.00;92142.50;4938242;29;20071;-79
2023/05/10 09:21:54;;;;;;;4.80;3.30;;;;;;;11.33;100.00;92142.88;4937211;29;20040;-79
2023/05/10 09:24:25;;;;;;;8.00;3.10;;;;;;;11.29;100.00;92130.66;4905325;29;20028;-79
2023/05/10 09:26:51;;;;;;;5.00;3.30;;;;;;;11.31;100.00;92144.25;4938103;29;20428;-79
2023/05/10 09:29:16;;;;;;;6.30;3.47;;;;;;;11.32;100.00;92140.53;4938261;29;20123;-78
2023/05/10 09:31:51;;;;;;;5.70;3.70;;;;;;;11.34;100.00;92143.63;4938206;29;20031;-78
2023/05/10 09:34:28;;;;;;;5.78;3.47;;;;;;;11.35;100.00;92140.72;4937654;29;20066;-79
2023/05/10 09:36:55;;;;;;;6.93;4.05;;;;;;;11.30;100.00;92146.06;4920969;29;20056;-79
2023/05/10 09:39:20;;;;;;;6.57;3.47;;;;;;;11.25;100.00;92143.56;4937760;29;20027;-79
2023/05/10 09:41:47;;;;;;;8.07;3.85;;;;;;;11.04;100.00;92138.81;4937132;29;20028;-78
2023/05/10 09:44:18;;;;;;;5.68;3.80;;;;;;;11.10;100.00;92143.91;4937246;29;20074;-78
2023/05/10 09:46:48;;;;;;;6.70;3.75;;;;;;;11.01;100.00;92152.50;4937793;29;20124;-79
2023/05/10 09:49:15;;;;;;;5.85;3.80;;;;;;;10.97;100.00;92146.31;4920646;29;20089;-79
2023/05/10 09:51:40;;;;;;;6.07;3.70;;;;;;;11.03;100.00;92142.50;4937769;29;20038;-78
2023/05/10 09:54:15;;;;;;;5.60;3.30;;;;;;;11.28;100.00;92140.38;4937110;29;20513;-79
2023/05/10 09:56:41;;;;;;;7.18;3.90;;;;;;;11.38;100.00;92155.06;4917015;29;20031;-79
2023/05/10 09:59:13;;;;;;;5.55;3.50;;;;;;;11.45;100.00;92150.94;4920955;29;20028;-79
2023/05/10 10:01:40;;;;;;;5.25;3.40;;;;;;;11.54;100.00;92147.63;4901939;29;20044;-79
2023/05/10 10:04:08;;;;;;;5.65;3.72;;;;;;;11.78;100.00;92147.28;4937654;29;20038;-79
2023/05/10 10:06:39;;;;;;;6.38;3.30;;;;;;;12.01;100.00;92143.56;4938804;29;20062;-79
2023/05/10 10:09:06;;;;;;;6.15;3.28;;;;;;;12.07;100.00;92142.34;4932469;29;20059;-79
2023/05/10 10:11:34;;;;;;;5.68;3.20;;;;;;;12.17;100.00;92146.53;4922688;29;20032;-78
2023/05/10 10:13:59;;;;;;;4.00;2.45;;;;;;;12.31;100.00;92143.03;4938028;29;20046;-78
2023/05/10 10:16:30;;;;;;;5.82;3.10;;;;;;;12.17;100.00;92141.28;4938455;29;20027;-79
2023/05/10 10:18:56;;;;;;;6.97;3.53;;;;;;;12.04;100.00;92142.16;4919662;29;20361;-79
2023/05/10 10:21:23;;;;;;;5.45;3.10;;;;;;;11.85;100.00;92143.16;4937817;29;20042;-78
2023/05/10 10:23:48;;;;;;;5.20;3.58;;;;;;;11.79;100.00;92144.34;4919435;29;20520;-77
2023/05/10 10:26:17;;;;;;;4.30;2.90;;;;;;;11.77;100.00;92146.50;4937389;29;20121;-78
2023/05/10 10:29:00;;;;;;;6.20;2.92;;;;;;;11.75;100.00;92143.41;4920747;29;20035;-79
2023/05/10 10:31:43;;;;;;;4.63;2.90;;;;;;;11.85;100.00;92137.91;4930577;29;20028;-78
2023/05/10 10:34:17;;;;;;;5.68;3.25;;;;;;;11.90;100.00;92138.88;4935905;29;20036;-78
2023/05/10 10:36:46;;;;;;;4.65;2.92;;;;;;;11.78;100.00;92142.81;4938251;29;20038;-78
2023/05/10 10:39:13;;;;;;;6.72;3.50;;;;;;;11.83;100.00;92140.06;4933189;29;20040;-78
2023/05/10 10:42:02;;;;;;;4.72;3.30;;;;;;;11.79;100.00;92141.72;4921295;29;20059;-78
2023/05/10 10:44:33;;;;;;;5.07;2.97;;;;;;;11.92;100.00;92139.34;4937397;29;20102;-78
2023/05/10 10:47:24;;;;;;;4.70;3.08;;;;;;;11.97;100.00;92136.59;4917423;29;20035;-77
2023/05/10 10:50:00;;;;;;;7.10;3.70;;;;;;;12.00;100.00;92134.16;4935090;29;20032;-78
2023/05/10 10:52:29;;;;;;;4.88;3.20;;;;;;;11.93;100.00;92133.03;4934694;29;20071;-78
2023/05/10 10:55:01;;;;;;;5.05;3.50;;;;;;;11.88;100.00;92128.69;4919545;29;20047;-78
2023/05/10 10:57:30;;;;;;;5.15;3.35;;;;;;;11.82;100.00;92128.03;4936882;29;20127;-78
2023/05/10 11:00:22;;;;;;;5.78;4.03;;;;;;;11.92;100.00;92124.38;4934944;29;20043;-78
2023/05/10 11:02:53;;;;;;;8.45;3.75;;;;;;;11.64;100.00;92126.38;4911321;29;20054;-78
2023/05/10 11:05:39;;;;;;;5.10;3.75;;;;;;;11.67;100.00;92128.41;4936644;29;20059;-78
2023/05/10 11:08:08;;;;;;;4.70;3.50;;;;;;;11.76;100.00;92123.22;4930062;29;20031;-78
2023/05/10 11:10:33;;;;;;;5.18;3.70;;;;;;;11.84;100.00;92125.88;4936366;29;20179;-78
2023/05/10 11:13:05;;;;;;;5.15;3.55;;;;;;;11.79;100.00;92123.38;4936078;29;20055;-78
2023/05/10 11:15:33;;;;;;;6.18;4.13;;;;;;;11.87;100.00;92125.28;4936916;29;20481;-78
2023/05/10 11:17:59;;;;;;;8.20;3.85;;;;;;;12.05;100.00;92120.13;4936348;29;20438;-78
2023/05/10 11:20:38;;;;;;;7.03;3.40;;;;;;;12.31;100.00;92114.94;4919252;29;20039;-78
2023/05/10 11:23:15;;;;;;;4.60;3.33;;;;;;;12.37;100.00;92116.34;4936158;29;20044;-78
2023/05/10 11:25:45;;;;;;;7.78;3.67;;;;;;;12.47;100.00;92118.69;4935126;29;20044;-78
2023/05/10 11:28:12;;;;;;;6.28;3.70;;;;;;;12.63;100.00;92118.25;4920003;29;20051;-78
2023/05/10 11:30:39;;;;;;;4.68;3.25;;;;;;;12.82;100.00;92112.72;4936014;29;20036;-78
2023/05/10 11:33:06;;;;;;;5.68;3.67;;;;;;;12.97;100.00;92117.50;4936209;29;20024;-78
2023/05/10 11:35:38;;;;;;;4.95;3.30;;;;;;;13.16;100.00;92108.53;4935297;29;20087;-78